createdAt,value
2019-02-21T00:00:58.732Z,18.85
2019-02-21T00:03:27.243Z,16.25
2019-02-21T00:05:55.378Z,19.87
2019-02-21T00:08:23.961Z,22.77
2019-02-21T00:10:52.494Z,18.10
2019-02-21T00:13:21.059Z,20.60
2019-02-21T00:15:49.935Z,17.35
2019-02-21T00:18:18.065Z,20.25
2019-02-21T00:20:46.608Z,18.73
2019-02-21T00:23:14.763Z,17.73
2019-02-21T00:25:42.890Z,18.73
2019-02-21T00:28:11.888Z,19.45
2019-02-21T00:30:39.977Z,22.80
2019-02-21T00:33:08.402Z,17.50
2019-02-21T00:35:36.620Z,21.23
2019-02-21T00:38:05.243Z,21.80
2019-02-21T00:40:33.383Z,20.45
2019-02-21T00:43:02.268Z,22.85
2019-02-21T00:45:31.365Z,20.68
2019-02-21T00:47:59.659Z,21.75
2019-02-21T00:50:28.751Z,20.30
2019-02-21T00:52:57.203Z,20.92
2019-02-21T00:55:27.814Z,23.10
2019-02-21T00:57:55.277Z,18.10
2019-02-21T01:00:23.751Z,22.03
2019-02-21T01:02:52.951Z,21.30
2019-02-21T01:05:21.809Z,20.97
2019-02-21T01:07:50.249Z,23.10
2019-02-21T01:10:18.381Z,21.57
2019-02-21T01:12:46.874Z,22.45
2019-02-21T01:15:15.462Z,26.90
2019-02-21T01:17:44.568Z,23.95
2019-02-21T01:20:13.242Z,21.00
2019-02-21T01:22:41.667Z,22.37
2019-02-21T01:25:11.845Z,22.80
2019-02-21T01:27:40.513Z,22.40
2019-02-21T01:30:09.217Z,22.90
2019-02-21T01:32:38.362Z,21.87
2019-02-21T01:35:07.739Z,19.75
2019-02-21T01:37:35.943Z,23.70
2019-02-21T01:40:05.010Z,24.55
2019-02-21T01:42:33.476Z,24.12
2019-02-21T01:45:02.337Z,24.02
2019-02-21T01:47:30.685Z,22.47
2019-02-21T01:49:59.175Z,22.40
2019-02-21T01:52:27.704Z,22.45
2019-02-21T01:54:56.157Z,24.12
2019-02-21T01:57:24.754Z,22.77
2019-02-21T01:59:52.880Z,24.50
2019-02-21T02:02:21.319Z,25.68
2019-02-21T02:04:50.428Z,29.65
2019-02-21T02:07:18.548Z,22.42
2019-02-21T02:09:47.027Z,27.48
2019-02-21T02:12:17.010Z,23.50
2019-02-21T02:14:46.026Z,26.17
2019-02-21T02:17:14.444Z,24.05
2019-02-21T02:19:42.617Z,24.70
2019-02-21T02:22:11.201Z,27.52
2019-02-21T02:24:39.904Z,26.77
2019-02-21T02:27:08.035Z,23.25
2019-02-21T02:29:36.180Z,25.48
2019-02-21T02:32:04.673Z,24.93
2019-02-21T02:34:33.498Z,27.25
2019-02-21T02:37:01.877Z,27.32
2019-02-21T02:39:31.955Z,24.72
2019-02-21T02:42:00.043Z,25.62
2019-02-21T02:44:28.475Z,24.10
2019-02-21T02:46:56.967Z,25.50
2019-02-21T02:49:25.588Z,24.85
2019-02-21T02:51:53.659Z,23.93
2019-02-21T02:54:21.753Z,25.97
2019-02-21T02:56:50.247Z,27.75
2019-02-21T02:59:18.294Z,26.55
2019-02-21T03:01:46.608Z,24.05
2019-02-21T03:04:15.872Z,27.05
2019-02-21T03:06:44.789Z,24.00
2019-02-21T03:09:13.622Z,25.87
2019-02-21T03:11:43.791Z,25.12
2019-02-21T03:14:12.308Z,26.50
2019-02-21T03:16:40.426Z,26.37
2019-02-21T03:19:08.435Z,24.52
2019-02-21T03:21:37.129Z,28.55
2019-02-21T03:24:05.352Z,27.90
2019-02-21T03:26:34.058Z,26.57
2019-02-21T03:29:02.234Z,27.05
2019-02-21T03:31:30.381Z,25.72
2019-02-21T03:33:58.863Z,26.30
2019-02-21T03:36:27.315Z,25.50
2019-02-21T03:38:55.646Z,25.80
2019-02-21T03:41:23.846Z,26.48
2019-02-21T03:43:52.001Z,28.20
2019-02-21T03:46:20.627Z,25.17
2019-02-21T03:48:49.169Z,28.42
2019-02-21T03:51:18.004Z,26.35
2019-02-21T03:53:48.301Z,26.10
2019-02-21T03:56:17.187Z,28.57
2019-02-21T03:58:45.592Z,27.60
2019-02-21T04:01:14.221Z,29.02
2019-02-21T04:03:42.551Z,32.23
2019-02-21T04:06:10.623Z,27.65
2019-02-21T04:08:39.527Z,28.20
2019-02-21T04:11:08.130Z,26.65
2019-02-21T04:13:36.708Z,27.45
2019-02-21T04:16:04.890Z,29.23
2019-02-21T04:18:33.477Z,27.02
2019-02-21T04:21:01.703Z,26.50
2019-02-21T04:23:30.100Z,28.07
2019-02-21T04:25:58.521Z,28.45
2019-02-21T04:28:26.696Z,26.45
2019-02-21T04:30:54.860Z,31.43
2019-02-21T04:33:23.190Z,29.33
2019-02-21T04:35:51.755Z,27.65
2019-02-21T04:38:20.210Z,29.82
2019-02-21T04:40:48.379Z,33.18
2019-02-21T04:43:16.500Z,27.30
2019-02-21T04:45:45.126Z,29.63
2019-02-21T04:48:13.244Z,30.87
2019-02-21T04:50:41.768Z,32.73
2019-02-21T04:53:10.290Z,34.15
2019-02-21T04:55:38.872Z,31.17
2019-02-21T04:58:06.995Z,31.52
2019-02-21T05:00:35.072Z,33.00
2019-02-21T05:03:03.643Z,33.88
2019-02-21T05:05:31.789Z,36.33
2019-02-21T05:08:00.607Z,34.15
2019-02-21T05:10:29.451Z,34.15
2019-02-21T05:12:58.198Z,32.83
2019-02-21T05:15:26.965Z,32.65
2019-02-21T05:17:55.619Z,36.85
2019-02-21T05:20:23.793Z,35.57
2019-02-21T05:22:51.900Z,35.40
2019-02-21T05:25:20.403Z,33.25
2019-02-21T05:27:53.670Z,36.85
2019-02-21T05:30:24.009Z,39.03
2019-02-21T05:33:04.082Z,36.35
2019-02-21T05:36:03.952Z,36.03
2019-02-21T05:38:48.108Z,35.33
2019-02-21T05:41:28.033Z,35.90
2019-02-21T05:44:04.723Z,38.15
2019-02-21T05:47:02.659Z,35.88
2019-02-21T05:49:42.996Z,40.95
2019-02-21T05:52:28.949Z,37.77
2019-02-21T05:55:16.061Z,36.80
2019-02-21T05:58:00.724Z,38.87
2019-02-21T06:00:57.345Z,36.03
2019-02-21T06:03:43.409Z,37.42
2019-02-21T06:06:27.364Z,40.38
2019-02-21T06:09:20.929Z,37.03
2019-02-21T06:12:05.073Z,40.23
2019-02-21T06:14:51.207Z,37.48
2019-02-21T06:17:38.241Z,38.60
2019-02-21T06:20:33.656Z,36.33
2019-02-21T06:23:25.087Z,40.43
2019-02-21T06:26:04.047Z,38.63
2019-02-21T06:28:54.587Z,35.40
2019-02-21T06:31:23.538Z,42.50
2019-02-21T06:33:52.236Z,37.23
2019-02-21T06:36:20.356Z,38.25
2019-02-21T06:38:49.199Z,66.77
2019-02-21T06:41:17.874Z,41.30
2019-02-21T06:43:46.496Z,36.08
2019-02-21T06:46:14.650Z,37.10
2019-02-21T06:48:44.649Z,36.20
2019-02-21T06:51:13.546Z,40.60
2019-02-21T06:53:42.638Z,35.40
2019-02-21T06:56:10.833Z,39.10
2019-02-21T06:58:41.981Z,35.78
2019-02-21T07:01:09.595Z,38.90
2019-02-21T07:03:37.852Z,40.88
2019-02-21T07:06:06.883Z,36.95
2019-02-21T07:08:35.672Z,36.48
2019-02-21T07:11:06.489Z,37.53
2019-02-21T07:13:34.285Z,36.65
2019-02-21T07:16:02.493Z,33.30
2019-02-21T07:18:30.669Z,38.45
2019-02-21T07:21:00.466Z,37.35
2019-02-21T07:23:35.790Z,36.75
2019-02-21T07:26:11.072Z,32.65
2019-02-21T07:28:41.677Z,34.15
2019-02-21T07:31:10.143Z,31.82
2019-02-21T07:33:38.739Z,36.42
2019-02-21T07:36:06.939Z,34.50
2019-02-21T07:38:35.126Z,30.72
2019-02-21T07:41:03.671Z,33.35
2019-02-21T07:43:32.550Z,33.00
2019-02-21T07:46:01.127Z,34.40
2019-02-21T07:48:29.323Z,30.97
2019-02-21T07:50:57.935Z,32.50
2019-02-21T07:53:26.122Z,33.20
2019-02-21T07:55:55.843Z,34.20
2019-02-21T07:58:24.474Z,29.60
2019-02-21T08:00:54.140Z,31.87
2019-02-21T08:03:30.267Z,31.02
2019-02-21T08:05:53.698Z,29.72
2019-02-21T08:08:22.380Z,30.37
2019-02-21T08:10:51.298Z,29.75
2019-02-21T08:13:19.821Z,32.50
2019-02-21T08:15:48.200Z,30.95
2019-02-21T08:18:16.302Z,27.70
2019-02-21T08:20:44.355Z,29.40
2019-02-21T08:23:12.860Z,29.00
2019-02-21T08:25:40.916Z,28.95
2019-02-21T08:28:09.001Z,26.50
2019-02-21T08:30:37.060Z,30.20
2019-02-21T08:33:22.450Z,29.12
2019-02-21T08:35:50.553Z,29.12
2019-02-21T08:38:19.218Z,26.12
2019-02-21T08:40:47.300Z,28.62
2019-02-21T08:43:15.396Z,28.12
2019-02-21T08:45:43.736Z,30.08
2019-02-21T08:48:13.503Z,25.72
2019-02-21T08:50:41.469Z,26.60
2019-02-21T08:53:10.333Z,26.73
2019-02-21T08:55:40.472Z,26.17
2019-02-21T08:58:09.116Z,26.57
2019-02-21T09:00:37.916Z,26.80
2019-02-21T09:03:06.595Z,27.32
2019-02-21T09:05:35.278Z,27.35
2019-02-21T09:08:03.356Z,26.20
2019-02-21T09:10:31.724Z,24.75
2019-02-21T09:13:00.104Z,24.37
2019-02-21T09:15:28.497Z,25.90
2019-02-21T09:17:56.589Z,24.72
2019-02-21T09:20:25.262Z,27.20
2019-02-21T09:22:53.312Z,23.62
2019-02-21T09:25:21.360Z,24.47
2019-02-21T09:27:49.679Z,25.20
2019-02-21T09:30:18.276Z,25.17
2019-02-21T09:32:46.636Z,26.55
2019-02-21T09:35:15.323Z,24.67
2019-02-21T09:37:43.371Z,27.02
2019-02-21T09:40:12.358Z,24.52
2019-02-21T09:42:40.759Z,25.00
2019-02-21T09:45:14.831Z,23.27
2019-02-21T09:47:43.218Z,25.55
2019-02-21T09:50:11.482Z,26.07
2019-02-21T09:52:39.811Z,24.35
2019-02-21T09:55:09.318Z,26.97
2019-02-21T09:57:37.343Z,24.57
2019-02-21T10:00:06.316Z,26.50
2019-02-21T10:02:34.704Z,24.15
2019-02-21T10:05:05.743Z,26.90
2019-02-21T10:07:37.066Z,25.80
2019-02-21T10:10:05.225Z,25.68
2019-02-21T10:12:33.659Z,24.40
2019-02-21T10:15:01.748Z,24.37
2019-02-21T10:17:30.451Z,25.05
2019-02-21T10:19:58.546Z,23.63
2019-02-21T10:22:26.751Z,24.57
2019-02-21T10:24:56.960Z,25.03
2019-02-21T10:27:25.445Z,23.83
2019-02-21T10:29:54.321Z,24.52
2019-02-21T10:32:22.999Z,26.05
2019-02-21T10:34:53.026Z,26.05
2019-02-21T10:37:20.767Z,23.38
2019-02-21T10:39:53.261Z,22.50
2019-02-21T10:42:21.288Z,22.50
2019-02-21T10:44:50.158Z,25.00
2019-02-21T10:47:18.920Z,23.92
2019-02-21T10:49:47.281Z,22.67
2019-02-21T10:52:15.663Z,24.50
2019-02-21T10:54:44.343Z,22.73
2019-02-21T10:57:13.001Z,25.15
2019-02-21T10:59:46.770Z,24.10
2019-02-21T11:02:11.377Z,23.65
2019-02-21T11:04:42.121Z,22.13
2019-02-21T11:07:09.563Z,24.00
2019-02-21T11:09:37.737Z,26.05
2019-02-21T11:12:06.610Z,23.18
2019-02-21T11:14:35.068Z,22.90
2019-02-21T11:17:03.813Z,25.10
2019-02-21T11:19:32.384Z,26.65
2019-02-21T11:22:00.474Z,24.57
2019-02-21T11:24:29.092Z,23.52
2019-02-21T11:26:57.692Z,24.18
2019-02-21T11:29:25.799Z,23.75
2019-02-21T11:31:54.212Z,23.55
2019-02-21T11:34:22.653Z,27.93
2019-02-21T11:36:51.150Z,25.05
2019-02-21T11:39:19.771Z,25.05
2019-02-21T11:41:47.998Z,25.70
2019-02-21T11:44:16.692Z,23.12
2019-02-21T11:46:45.119Z,22.87
2019-02-21T11:49:13.610Z,27.50
2019-02-21T11:51:42.492Z,22.35
2019-02-21T11:54:10.908Z,26.97
2019-02-21T11:56:39.055Z,24.87
2019-02-21T11:59:07.500Z,22.40
2019-02-21T12:01:36.156Z,53.33
2019-02-21T12:04:04.221Z,37.13
2019-02-21T12:06:32.933Z,54.58
2019-02-21T12:09:01.352Z,51.10
2019-02-21T12:11:30.366Z,42.17
2019-02-21T12:13:58.451Z,27.53
2019-02-21T12:16:26.924Z,28.98
2019-02-21T12:18:54.952Z,27.93
2019-02-21T12:21:23.253Z,26.75
2019-02-21T12:23:51.577Z,28.90
2019-02-21T12:26:19.637Z,26.57
2019-02-21T12:28:47.695Z,29.05
2019-02-21T12:31:16.257Z,25.40
2019-02-21T12:33:44.641Z,31.30
2019-02-21T12:36:13.519Z,27.75
2019-02-21T12:38:41.910Z,29.27
2019-02-21T12:41:10.362Z,28.57
2019-02-21T12:43:38.634Z,28.05
2019-02-21T12:46:07.048Z,26.10
2019-02-21T12:48:35.768Z,25.77
2019-02-21T12:51:03.833Z,29.37
2019-02-21T12:53:32.596Z,27.93
2019-02-21T12:56:00.973Z,28.00
2019-02-21T12:58:29.388Z,24.20
2019-02-21T13:00:57.420Z,25.65
2019-02-21T13:03:26.112Z,28.12
2019-02-21T13:05:54.561Z,32.50
2019-02-21T13:08:22.973Z,26.93
2019-02-21T13:10:51.693Z,28.30
2019-02-21T13:13:20.055Z,26.50
2019-02-21T13:15:48.421Z,30.20
2019-02-21T13:18:16.791Z,31.95
2019-02-21T13:20:45.172Z,30.57
2019-02-21T13:23:13.525Z,29.87
2019-02-21T13:25:41.869Z,31.55
2019-02-21T13:28:09.988Z,32.25
2019-02-21T13:30:38.326Z,35.63
2019-02-21T13:33:06.652Z,31.83
2019-02-21T13:35:35.353Z,28.87
2019-02-21T13:38:03.433Z,30.20
2019-02-21T13:40:31.852Z,28.15
2019-02-21T13:42:59.904Z,33.80
2019-02-21T13:45:27.939Z,35.00
2019-02-21T13:47:56.633Z,33.78
2019-02-21T13:50:25.093Z,31.80
2019-02-21T13:52:53.359Z,30.15
2019-02-21T13:55:21.774Z,31.05
2019-02-21T13:57:50.156Z,31.12
2019-02-21T14:00:18.701Z,30.83
2019-02-21T14:02:47.417Z,29.63
2019-02-21T14:05:15.445Z,29.32
2019-02-21T14:07:43.769Z,33.45
2019-02-21T14:10:12.155Z,30.23
2019-02-21T14:12:40.219Z,35.55
2019-02-21T14:15:09.733Z,30.25
2019-02-21T14:17:37.787Z,32.30
2019-02-21T14:20:06.213Z,32.27
2019-02-21T14:22:34.957Z,29.40
2019-02-21T14:25:04.877Z,29.10
2019-02-21T14:27:33.263Z,29.57
2019-02-21T14:30:01.645Z,32.13
2019-02-21T14:32:30.132Z,34.25
2019-02-21T14:34:58.195Z,31.80
2019-02-21T14:37:26.335Z,32.70
2019-02-21T14:39:55.018Z,31.80
2019-02-21T14:42:23.100Z,32.28
2019-02-21T14:44:51.469Z,31.90
2019-02-21T14:47:19.884Z,35.65
2019-02-21T14:49:51.027Z,32.00
2019-02-21T14:52:19.417Z,33.08
2019-02-21T14:54:47.514Z,36.68
2019-02-21T14:57:15.617Z,37.13
2019-02-21T14:59:44.800Z,38.55
2019-02-21T15:02:13.121Z,36.30
2019-02-21T15:04:41.171Z,47.40
2019-02-21T15:07:09.639Z,51.77
2019-02-21T15:09:37.655Z,39.70
2019-02-21T15:12:05.731Z,41.83
2019-02-21T15:14:34.084Z,39.98
2019-02-21T15:17:03.888Z,44.93
2019-02-21T15:19:32.161Z,42.67
2019-02-21T15:22:00.460Z,41.40
2019-02-21T15:24:29.035Z,43.92
2019-02-21T15:27:07.865Z,44.55
2019-02-21T15:29:27.350Z,46.20
2019-02-21T15:31:55.741Z,50.48
2019-02-21T15:34:24.145Z,46.10
2019-02-21T15:36:52.471Z,48.70
2019-02-21T15:39:20.564Z,49.75
2019-02-21T15:41:48.621Z,52.93
2019-02-21T15:44:17.429Z,56.20
2019-02-21T15:46:45.905Z,47.90
2019-02-21T15:49:14.218Z,51.60
2019-02-21T15:51:42.876Z,57.65
2019-02-21T15:54:12.575Z,50.30
2019-02-21T15:56:40.737Z,50.17
2019-02-21T15:59:09.102Z,56.25
2019-02-21T16:01:46.996Z,58.10
2019-02-21T16:04:07.330Z,58.30
2019-02-21T16:06:37.918Z,56.40
2019-02-21T16:09:15.862Z,55.75
2019-02-21T16:11:37.172Z,60.25
2019-02-21T16:14:05.216Z,54.40
2019-02-21T16:16:33.308Z,60.03
2019-02-21T16:19:01.387Z,59.97
2019-02-21T16:21:29.707Z,58.73
2019-02-21T16:23:57.758Z,60.38
2019-02-21T16:26:25.827Z,61.80
2019-02-21T16:28:54.288Z,58.85
2019-02-21T16:31:23.285Z,60.20
2019-02-21T16:33:51.339Z,55.05
2019-02-21T16:36:20.080Z,49.50
2019-02-21T16:38:48.079Z,45.50
2019-02-21T16:41:16.216Z,48.75
2019-02-21T16:43:44.599Z,46.13
2019-02-21T16:46:13.648Z,42.50
2019-02-21T16:48:42.045Z,42.15
2019-02-21T16:51:10.117Z,43.87
2019-02-21T16:53:38.543Z,43.30
2019-02-21T16:56:07.286Z,39.58
2019-02-21T16:58:35.323Z,38.30
2019-02-21T17:01:03.388Z,45.75
2019-02-21T17:03:31.811Z,41.98
2019-02-21T17:06:00.234Z,37.53
2019-02-21T17:08:28.677Z,39.48
2019-02-21T17:10:57.175Z,37.53
2019-02-21T17:13:25.240Z,36.20
2019-02-21T17:15:53.284Z,37.98
2019-02-21T17:18:21.365Z,35.03
2019-02-21T17:20:49.771Z,33.53
2019-02-21T17:23:22.742Z,33.17
2019-02-21T17:25:47.532Z,33.48
2019-02-21T17:28:15.640Z,32.48
2019-02-21T17:30:43.963Z,34.15
2019-02-21T17:33:12.418Z,31.50
2019-02-21T17:35:40.470Z,30.57
2019-02-21T17:38:08.555Z,30.72
2019-02-21T17:40:37.033Z,33.20
2019-02-21T17:43:05.952Z,28.50
2019-02-21T17:45:34.362Z,27.65
2019-02-21T17:48:02.461Z,27.20
2019-02-21T17:50:30.510Z,25.23
2019-02-21T17:52:58.717Z,25.27
2019-02-21T17:55:26.906Z,23.52
2019-02-21T17:57:55.650Z,24.32
2019-02-21T18:00:32.630Z,20.60
2019-02-21T18:03:01.140Z,20.08
2019-02-21T18:05:29.144Z,19.62
2019-02-21T18:07:57.408Z,19.10
2019-02-21T18:10:27.026Z,19.50
2019-02-21T18:12:55.545Z,18.35
2019-02-21T18:15:23.980Z,18.77
2019-02-21T18:17:52.773Z,18.17
2019-02-21T18:20:21.330Z,17.60
2019-02-21T18:22:49.510Z,16.20
2019-02-21T18:25:19.844Z,15.20
2019-02-21T18:27:48.398Z,15.80
2019-02-21T18:30:16.865Z,14.28
2019-02-21T18:32:45.356Z,13.90
2019-02-21T18:35:13.676Z,13.50
2019-02-21T18:37:47.463Z,12.60
2019-02-21T18:40:17.288Z,19.30
2019-02-21T18:42:44.284Z,26.07
2019-02-21T18:45:13.066Z,15.98
2019-02-21T18:47:41.400Z,34.45
2019-02-21T18:50:09.988Z,14.30
2019-02-21T18:52:38.256Z,13.30
2019-02-21T18:55:07.720Z,14.10
2019-02-21T18:57:36.714Z,14.58
2019-02-21T19:00:07.008Z,15.60
2019-02-21T19:02:36.336Z,14.85
2019-02-21T19:05:04.886Z,15.20
2019-02-21T19:07:33.737Z,15.93
2019-02-21T19:10:02.485Z,16.48
2019-02-21T19:12:30.613Z,16.70
2019-02-21T19:14:59.053Z,16.97
2019-02-21T19:17:27.568Z,18.75
2019-02-21T19:19:56.280Z,17.95
2019-02-21T19:22:24.699Z,18.17
2019-02-21T19:24:53.599Z,16.90
2019-02-21T19:27:22.065Z,17.87
2019-02-21T19:29:50.546Z,17.02
2019-02-21T19:32:18.668Z,16.80
2019-02-21T19:34:47.664Z,17.60
2019-02-21T19:37:15.793Z,18.17
2019-02-21T19:39:45.856Z,18.05
2019-02-21T19:42:14.399Z,17.70
2019-02-21T19:44:43.208Z,18.00
2019-02-21T19:47:11.305Z,17.70
2019-02-21T19:49:40.154Z,17.98
2019-02-21T19:52:08.295Z,18.82
2019-02-21T19:54:36.465Z,17.02
2019-02-21T19:57:05.224Z,18.10
2019-02-21T19:59:35.182Z,18.77
2019-02-21T20:02:03.800Z,18.37
2019-02-21T20:04:32.911Z,20.30
2019-02-21T20:07:01.785Z,20.43
2019-02-21T20:09:30.070Z,20.27
2019-02-21T20:11:58.391Z,19.90
2019-02-21T20:14:26.967Z,20.02
2019-02-21T20:16:55.806Z,20.68
2019-02-21T20:19:24.488Z,22.37
2019-02-21T20:21:54.525Z,24.18
2019-02-21T20:24:23.744Z,21.48
2019-02-21T20:26:52.441Z,23.52
2019-02-21T20:29:20.513Z,23.57
2019-02-21T20:31:48.587Z,23.93
2019-02-21T20:34:17.013Z,25.40
2019-02-21T20:36:50.962Z,25.27
2019-02-21T20:39:14.800Z,25.20
2019-02-21T20:41:43.031Z,26.60
2019-02-21T20:44:11.112Z,26.05
2019-02-21T20:46:39.344Z,28.62
2019-02-21T20:49:08.237Z,26.80
2019-02-21T20:51:36.815Z,29.50
2019-02-21T20:54:05.151Z,30.30
2019-02-21T20:56:33.663Z,34.67
2019-02-21T20:59:02.539Z,30.85
2019-02-21T21:01:30.720Z,31.23
2019-02-21T21:03:59.332Z,33.58
2019-02-21T21:06:29.536Z,34.25
2019-02-21T21:08:57.576Z,40.03
2019-02-21T21:11:26.316Z,36.25
2019-02-21T21:13:54.426Z,35.20
2019-02-21T21:16:23.041Z,37.40
2019-02-21T21:18:52.044Z,37.17
2019-02-21T21:21:20.084Z,37.08
2019-02-21T21:23:48.512Z,42.10
2019-02-21T21:26:16.549Z,38.70
2019-02-21T21:28:44.691Z,36.50
2019-02-21T21:31:15.238Z,43.63
2019-02-21T21:33:43.352Z,43.40
2019-02-21T21:36:12.520Z,49.45
2019-02-21T21:38:40.701Z,45.15
2019-02-21T21:41:08.832Z,47.08
2019-02-21T21:43:37.271Z,47.70
2019-02-21T21:46:05.489Z,49.03
2019-02-21T21:48:34.963Z,50.75
2019-02-21T21:51:05.282Z,45.67
2019-02-21T21:53:35.214Z,49.03
2019-02-21T21:56:03.427Z,48.40
2019-02-21T21:58:33.344Z,45.75
2019-02-21T22:01:01.493Z,43.60
2019-02-21T22:03:29.919Z,45.83
2019-02-21T22:05:58.425Z,43.80
2019-02-21T22:08:26.637Z,42.73
2019-02-21T22:10:55.853Z,41.00
2019-02-21T22:13:24.276Z,41.88
2019-02-21T22:15:52.652Z,44.20
2019-02-21T22:18:21.138Z,36.35
2019-02-21T22:20:49.299Z,39.80
2019-02-21T22:23:17.676Z,37.30
2019-02-21T22:25:46.155Z,36.13
2019-02-21T22:28:14.334Z,39.67
2019-02-21T22:30:42.413Z,40.90
2019-02-21T22:33:10.908Z,36.48
2019-02-21T22:35:39.606Z,38.53
2019-02-21T22:38:07.719Z,36.83
2019-02-21T22:40:36.084Z,38.42
2019-02-21T22:43:04.744Z,39.50
2019-02-21T22:45:33.780Z,38.00
2019-02-21T22:48:02.141Z,40.38
2019-02-21T22:50:30.791Z,39.83
2019-02-21T22:52:59.628Z,37.30
2019-02-21T22:55:28.889Z,36.75
2019-02-21T22:57:57.605Z,34.50
2019-02-21T23:00:59.795Z,36.65
2019-02-21T23:03:29.523Z,35.60
2019-02-21T23:06:16.679Z,35.08
2019-02-21T23:08:46.493Z,37.65
2019-02-21T23:11:15.002Z,38.90
2019-02-21T23:13:43.446Z,37.13
2019-02-21T23:16:12.561Z,35.33
2019-02-21T23:18:43.045Z,41.33
2019-02-21T23:21:11.327Z,38.92
2019-02-21T23:23:39.823Z,36.57
2019-02-21T23:26:08.775Z,35.52
2019-02-21T23:28:37.605Z,38.50
2019-02-21T23:31:06.204Z,40.23
2019-02-21T23:33:37.461Z,39.98
2019-02-21T23:36:07.233Z,36.45
2019-02-21T23:38:35.741Z,37.93
2019-02-21T23:41:04.425Z,37.97
2019-02-21T23:43:32.866Z,39.05
2019-02-21T23:46:01.511Z,40.17
2019-02-21T23:48:29.715Z,37.03
2019-02-21T23:50:58.604Z,38.35
2019-02-21T23:53:27.927Z,37.10
2019-02-21T23:55:58.243Z,41.13
2019-02-21T23:58:26.416Z,44.35
